createdAt,value
2024-05-09T00:00:10.418Z,34.91
2024-05-09T00:01:08.490Z,34.92
2024-05-09T00:02:07.499Z,34.91
2024-05-09T00:03:07.891Z,34.92
2024-05-09T00:04:07.495Z,34.93
2024-05-09T00:05:07.594Z,34.88
2024-05-09T00:06:07.545Z,34.91
2024-05-09T00:07:07.514Z,34.89
2024-05-09T00:08:07.598Z,34.88
2024-05-09T00:09:07.511Z,34.86
2024-05-09T00:10:11.794Z,34.88
2024-05-09T00:11:08.690Z,34.86
2024-05-09T00:12:07.836Z,34.87
2024-05-09T00:13:07.981Z,34.87
2024-05-09T00:14:07.610Z,34.87
2024-05-09T00:15:07.563Z,34.85
2024-05-09T00:16:07.588Z,34.87
2024-05-09T00:17:07.669Z,34.90
2024-05-09T00:18:08.267Z,34.88
2024-05-09T00:19:07.682Z,34.89
2024-05-09T00:20:14.335Z,34.86
2024-05-09T00:21:08.748Z,34.92
2024-05-09T00:22:07.598Z,34.89
2024-05-09T00:23:08.125Z,34.90
2024-05-09T00:24:07.598Z,34.88
2024-05-09T00:25:07.610Z,34.89
2024-05-09T00:26:07.719Z,34.84
2024-05-09T00:27:08.968Z,34.82
2024-05-09T00:28:07.650Z,34.85
2024-05-09T00:29:07.665Z,34.83
2024-05-09T00:30:11.537Z,34.84
2024-05-09T00:31:08.709Z,34.87
2024-05-09T00:32:07.775Z,34.86
2024-05-09T00:33:09.224Z,34.84
2024-05-09T00:34:07.774Z,34.87
2024-05-09T00:35:07.743Z,34.87
2024-05-09T00:36:07.694Z,34.84
2024-05-09T00:37:07.706Z,34.86
2024-05-09T00:38:07.859Z,34.86
2024-05-09T00:39:07.747Z,34.88
2024-05-09T00:40:15.030Z,34.84
2024-05-09T00:41:08.756Z,34.86
2024-05-09T00:42:07.718Z,34.85
2024-05-09T00:43:07.728Z,34.83
2024-05-09T00:44:07.741Z,34.83
2024-05-09T00:45:07.754Z,34.81
2024-05-09T00:46:07.744Z,34.79
2024-05-09T00:47:08.056Z,34.80
2024-05-09T00:48:09.384Z,34.85
2024-05-09T00:49:07.850Z,34.83
2024-05-09T00:50:12.873Z,34.81
2024-05-09T00:51:08.818Z,34.83
2024-05-09T00:52:07.751Z,34.81
2024-05-09T00:53:07.847Z,34.82
2024-05-09T00:54:07.762Z,34.81
2024-05-09T00:55:07.772Z,34.78
2024-05-09T00:56:07.805Z,34.81
2024-05-09T00:57:07.759Z,34.75
2024-05-09T00:58:07.827Z,34.80
2024-05-09T00:59:07.798Z,34.80
2024-05-09T01:00:15.060Z,34.78
2024-05-09T01:01:08.811Z,34.77
2024-05-09T01:02:07.851Z,34.81
2024-05-09T01:03:08.460Z,34.80
2024-05-09T01:04:07.937Z,34.79
2024-05-09T01:05:07.842Z,34.82
2024-05-09T01:06:07.806Z,34.78
2024-05-09T01:07:07.745Z,34.78
2024-05-09T01:08:08.026Z,34.78
2024-05-09T01:09:07.789Z,34.81
2024-05-09T01:10:14.081Z,34.80
2024-05-09T01:11:08.894Z,34.78
2024-05-09T01:12:07.910Z,34.77
2024-05-09T01:13:07.858Z,34.79
2024-05-09T01:14:07.862Z,34.82
2024-05-09T01:15:07.804Z,34.76
2024-05-09T01:16:07.824Z,34.77
2024-05-09T01:17:07.938Z,34.77
2024-05-09T01:18:08.063Z,34.78
2024-05-09T01:19:07.959Z,34.75
2024-05-09T01:20:10.882Z,34.76
2024-05-09T01:21:08.880Z,34.75
2024-05-09T01:22:07.810Z,34.77
2024-05-09T01:23:07.901Z,34.75
2024-05-09T01:24:07.836Z,34.74
2024-05-09T01:25:07.835Z,34.74
2024-05-09T01:26:07.880Z,34.76
2024-05-09T01:27:07.894Z,34.73
2024-05-09T01:28:07.874Z,34.71
2024-05-09T01:29:07.898Z,34.71
2024-05-09T01:30:09.674Z,34.72
2024-05-09T01:31:08.864Z,34.75
2024-05-09T01:32:08.022Z,34.74
2024-05-09T01:33:09.861Z,34.75
2024-05-09T01:34:07.891Z,34.74
2024-05-09T01:35:07.916Z,34.72
2024-05-09T01:36:07.885Z,34.72
2024-05-09T01:37:07.887Z,34.75
2024-05-09T01:38:07.961Z,34.73
2024-05-09T01:39:07.879Z,34.73
2024-05-09T01:40:12.177Z,34.72
2024-05-09T01:41:08.933Z,34.72
2024-05-09T01:42:07.881Z,34.72
2024-05-09T01:43:08.673Z,34.73
2024-05-09T01:44:07.959Z,34.72
2024-05-09T01:45:07.896Z,34.71
2024-05-09T01:46:07.904Z,34.72
2024-05-09T01:47:07.958Z,34.71
2024-05-09T01:48:08.241Z,34.68
2024-05-09T01:49:08.250Z,34.70
2024-05-09T01:50:10.730Z,34.67
2024-05-09T01:51:08.158Z,34.65
2024-05-09T01:52:07.978Z,34.70
2024-05-09T01:53:08.151Z,34.70
2024-05-09T01:54:08.000Z,34.69
2024-05-09T01:55:07.982Z,34.71
2024-05-09T01:56:08.165Z,34.71
2024-05-09T01:57:08.046Z,34.68
2024-05-09T01:58:08.055Z,34.69
2024-05-09T01:59:08.113Z,34.69
2024-05-09T02:00:08.127Z,34.67
2024-05-09T02:01:08.060Z,34.69
2024-05-09T02:02:08.156Z,34.68
2024-05-09T02:03:08.223Z,34.68
2024-05-09T02:04:08.335Z,34.67
2024-05-09T02:05:08.211Z,34.66
2024-05-09T02:06:08.302Z,34.68
2024-05-09T02:07:08.051Z,34.66
2024-05-09T02:08:08.079Z,34.67
2024-05-09T02:09:08.068Z,34.68
2024-05-09T02:10:13.996Z,34.66
2024-05-09T02:11:09.168Z,34.67
2024-05-09T02:12:08.209Z,34.67
2024-05-09T02:13:08.091Z,34.68
2024-05-09T02:14:08.076Z,34.67
2024-05-09T02:15:08.102Z,34.65
2024-05-09T02:16:08.120Z,34.66
2024-05-09T02:17:08.209Z,34.66
2024-05-09T02:18:08.539Z,34.64
2024-05-09T02:19:08.208Z,34.65
2024-05-09T02:20:13.125Z,34.65
2024-05-09T02:21:09.221Z,34.68
2024-05-09T02:22:08.110Z,34.66
2024-05-09T02:23:08.282Z,34.63
2024-05-09T02:24:08.120Z,34.65
2024-05-09T02:25:08.126Z,34.64
2024-05-09T02:26:08.240Z,34.66
2024-05-09T02:27:08.151Z,34.64
2024-05-09T02:28:08.147Z,34.63
2024-05-09T02:29:08.166Z,34.62
2024-05-09T02:30:18.270Z,34.64
2024-05-09T02:31:09.150Z,34.64
2024-05-09T02:32:08.239Z,34.62
2024-05-09T02:33:09.009Z,34.63
2024-05-09T02:34:08.208Z,34.65
2024-05-09T02:35:08.199Z,34.63
2024-05-09T02:36:08.140Z,34.63
2024-05-09T02:37:08.151Z,34.62
2024-05-09T02:38:08.226Z,34.60
2024-05-09T02:39:08.201Z,34.62
2024-05-09T02:40:11.719Z,34.63
2024-05-09T02:41:09.317Z,34.63
2024-05-09T02:42:08.289Z,34.63
2024-05-09T02:43:09.508Z,34.61
2024-05-09T02:44:08.486Z,34.60
2024-05-09T02:45:08.434Z,34.61
2024-05-09T02:46:08.500Z,34.60
2024-05-09T02:47:08.655Z,34.62
2024-05-09T02:48:08.701Z,34.60
2024-05-09T02:49:08.749Z,34.61
2024-05-09T02:50:08.760Z,34.60
2024-05-09T02:51:08.831Z,34.60
2024-05-09T02:52:08.748Z,34.61
2024-05-09T02:53:09.692Z,34.58
2024-05-09T02:54:08.838Z,34.58
2024-05-09T02:55:08.882Z,34.58
2024-05-09T02:56:09.014Z,34.58
2024-05-09T02:57:09.021Z,34.57
2024-05-09T02:58:09.131Z,34.59
2024-05-09T02:59:09.144Z,34.57
2024-05-09T03:00:18.294Z,34.55
2024-05-09T03:01:10.384Z,34.58
2024-05-09T03:02:09.410Z,34.57
2024-05-09T03:03:11.125Z,34.58
2024-05-09T03:04:09.471Z,34.58
2024-05-09T03:05:09.391Z,34.58
2024-05-09T03:06:09.387Z,34.59
2024-05-09T03:07:09.380Z,34.60
2024-05-09T03:08:09.651Z,34.57
2024-05-09T03:09:09.386Z,34.58
2024-05-09T03:10:18.215Z,34.59
2024-05-09T03:11:10.547Z,34.57
2024-05-09T03:12:09.513Z,34.57
2024-05-09T03:13:09.426Z,34.56
2024-05-09T03:14:09.434Z,34.53
2024-05-09T03:15:09.396Z,34.52
2024-05-09T03:16:09.403Z,34.55
2024-05-09T03:17:09.467Z,34.55
2024-05-09T03:18:09.785Z,34.55
2024-05-09T03:19:09.556Z,34.55
2024-05-09T03:20:16.897Z,34.58
2024-05-09T03:21:10.535Z,34.59
2024-05-09T03:22:09.417Z,34.58
2024-05-09T03:23:10.276Z,34.55
2024-05-09T03:24:09.430Z,34.56
2024-05-09T03:25:09.405Z,34.55
2024-05-09T03:26:09.494Z,34.58
2024-05-09T03:27:09.451Z,34.57
2024-05-09T03:28:09.449Z,34.54
2024-05-09T03:29:09.475Z,34.54
2024-05-09T03:30:10.019Z,34.56
2024-05-09T03:31:09.466Z,34.56
2024-05-09T03:32:09.550Z,34.54
2024-05-09T03:33:09.803Z,34.56
2024-05-09T03:34:09.584Z,34.53
2024-05-09T03:35:09.548Z,34.54
2024-05-09T03:36:11.326Z,34.52
2024-05-09T03:37:09.639Z,34.52
2024-05-09T03:38:09.845Z,34.53
2024-05-09T03:39:09.692Z,34.54
2024-05-09T03:40:14.654Z,34.52
2024-05-09T03:41:10.789Z,34.52
2024-05-09T03:42:09.739Z,34.53
2024-05-09T03:43:09.769Z,34.53
2024-05-09T03:44:09.836Z,34.52
2024-05-09T03:45:09.733Z,34.52
2024-05-09T03:46:09.750Z,34.50
2024-05-09T03:47:09.816Z,34.50
2024-05-09T03:48:10.162Z,34.54
2024-05-09T03:49:09.896Z,34.51
2024-05-09T03:50:18.019Z,34.51
2024-05-09T03:51:10.986Z,34.51
2024-05-09T03:52:09.802Z,34.51
2024-05-09T03:53:09.833Z,34.52
2024-05-09T03:54:09.783Z,34.52
2024-05-09T03:55:09.786Z,34.53
2024-05-09T03:56:09.893Z,34.50
2024-05-09T03:57:09.848Z,34.50
2024-05-09T03:58:09.856Z,34.50
2024-05-09T03:59:09.892Z,34.50
2024-05-09T04:00:17.635Z,34.50
2024-05-09T04:01:10.882Z,34.49
2024-05-09T04:02:09.939Z,34.50
2024-05-09T04:03:12.022Z,34.52
2024-05-09T04:04:09.945Z,34.50
2024-05-09T04:05:09.921Z,34.50
2024-05-09T04:06:09.869Z,34.51
2024-05-09T04:07:09.890Z,34.51
2024-05-09T04:08:10.579Z,34.49
2024-05-09T04:09:09.897Z,34.49
2024-05-09T04:10:17.009Z,34.51
2024-05-09T04:11:10.977Z,34.49
2024-05-09T04:12:10.049Z,34.48
2024-05-09T04:13:09.925Z,34.49
2024-05-09T04:14:09.968Z,34.49
2024-05-09T04:15:13.280Z,34.50
2024-05-09T04:16:09.877Z,34.50
2024-05-09T04:17:09.938Z,34.51
2024-05-09T04:18:10.102Z,34.49
2024-05-09T04:19:10.030Z,34.47
2024-05-09T04:20:15.160Z,34.47
2024-05-09T04:21:10.920Z,34.51
2024-05-09T04:22:09.931Z,34.48
2024-05-09T04:23:09.925Z,34.47
2024-05-09T04:24:09.910Z,34.48
2024-05-09T04:25:09.894Z,34.46
2024-05-09T04:26:09.958Z,34.47
2024-05-09T04:27:09.949Z,34.45
2024-05-09T04:28:09.924Z,34.43
2024-05-09T04:29:09.961Z,34.43
2024-05-09T04:30:18.400Z,34.45
2024-05-09T04:31:10.938Z,34.47
2024-05-09T04:32:10.056Z,34.46
2024-05-09T04:33:12.071Z,34.42
2024-05-09T04:34:10.038Z,34.44
2024-05-09T04:35:09.986Z,34.44
2024-05-09T04:36:09.945Z,34.45
2024-05-09T04:37:17.223Z,34.50
2024-05-09T04:38:17.293Z,34.48
2024-05-09T04:39:17.227Z,34.48
2024-05-09T04:40:24.409Z,34.42
2024-05-09T04:41:18.271Z,34.46
2024-05-09T04:42:17.244Z,34.42
2024-05-09T04:43:17.540Z,34.43
2024-05-09T04:44:17.275Z,34.39
2024-05-09T04:45:17.215Z,34.42
2024-05-09T04:46:17.267Z,34.39
2024-05-09T04:47:17.385Z,34.39
2024-05-09T04:48:17.414Z,34.39
2024-05-09T04:49:17.428Z,34.38
2024-05-09T04:50:25.332Z,34.37
2024-05-09T04:51:18.312Z,34.39
2024-05-09T04:52:17.297Z,34.37
2024-05-09T04:53:17.637Z,34.35
2024-05-09T04:54:26.481Z,34.34
2024-05-09T04:55:18.285Z,34.36
2024-05-09T04:56:17.340Z,34.34
2024-05-09T04:57:17.330Z,34.33
2024-05-09T04:58:17.308Z,34.34
2024-05-09T04:59:17.331Z,34.33
2024-05-09T05:00:40.883Z,34.31
2024-05-09T05:01:39.831Z,34.39
2024-05-09T05:02:17.451Z,34.43
2024-05-09T05:03:17.799Z,34.36
2024-05-09T05:04:17.616Z,34.36
2024-05-09T05:05:17.470Z,34.36
2024-05-09T05:06:17.330Z,34.34
2024-05-09T05:07:17.337Z,34.33
2024-05-09T05:08:18.375Z,34.33
2024-05-09T05:09:17.301Z,34.30
2024-05-09T05:10:25.115Z,34.29
2024-05-09T05:11:18.405Z,34.30
2024-05-09T05:12:17.410Z,34.29
2024-05-09T05:13:18.347Z,34.28
2024-05-09T05:14:17.352Z,34.23
2024-05-09T05:15:17.323Z,34.26
2024-05-09T05:16:17.337Z,34.27
2024-05-09T05:17:17.382Z,34.20
2024-05-09T05:18:17.611Z,34.19
2024-05-09T05:19:17.848Z,34.24
2024-05-09T05:20:27.006Z,34.20
2024-05-09T05:21:18.449Z,34.21
2024-05-09T05:22:17.369Z,34.20
2024-05-09T05:23:17.417Z,34.18
2024-05-09T05:24:17.382Z,34.18
2024-05-09T05:25:17.389Z,34.17
2024-05-09T05:26:17.426Z,34.19
2024-05-09T05:27:17.402Z,34.16
2024-05-09T05:28:17.583Z,34.11
2024-05-09T05:29:20.181Z,34.14
2024-05-09T05:30:21.526Z,34.15
2024-05-09T05:31:18.459Z,34.14
2024-05-09T05:32:17.445Z,34.13
2024-05-09T05:33:17.519Z,34.12
2024-05-09T05:34:17.410Z,34.08
2024-05-09T05:35:17.463Z,34.09
2024-05-09T05:36:17.423Z,34.09
2024-05-09T05:37:17.445Z,34.11
2024-05-09T05:38:17.556Z,34.10
2024-05-09T05:39:17.417Z,34.09
2024-05-09T05:40:28.007Z,34.05
2024-05-09T05:41:18.460Z,34.05
2024-05-09T05:42:17.469Z,34.04
2024-05-09T05:43:17.508Z,34.02
2024-05-09T05:44:17.638Z,34.03
2024-05-09T05:45:39.985Z,34.05
2024-05-09T05:46:17.478Z,34.14
2024-05-09T05:47:17.639Z,34.07
2024-05-09T05:48:18.118Z,34.07
2024-05-09T05:49:17.553Z,34.01
2024-05-09T05:50:24.735Z,34.01
2024-05-09T05:51:18.631Z,34.01
2024-05-09T05:52:17.471Z,34.02
2024-05-09T05:53:17.541Z,34.00
2024-05-09T05:54:17.489Z,33.99
2024-05-09T05:55:17.490Z,33.97
2024-05-09T05:56:17.566Z,34.01
2024-05-09T05:57:17.523Z,33.97
2024-05-09T05:58:17.505Z,33.97
2024-05-09T05:59:17.546Z,33.97
2024-05-09T06:00:26.095Z,33.95
2024-05-09T06:01:18.544Z,33.96
2024-05-09T06:02:17.586Z,33.98
2024-05-09T06:03:17.561Z,33.98
2024-05-09T06:04:17.575Z,34.00
2024-05-09T06:05:17.564Z,33.99
2024-05-09T06:06:17.529Z,33.99
2024-05-09T06:07:17.536Z,33.98
2024-05-09T06:08:18.022Z,33.95
2024-05-09T06:09:17.584Z,33.98
2024-05-09T06:10:25.156Z,33.94
2024-05-09T06:11:18.684Z,33.95
2024-05-09T06:12:17.683Z,33.94
2024-05-09T06:13:17.670Z,33.94
2024-05-09T06:14:17.754Z,33.89
2024-05-09T06:15:17.637Z,33.92
2024-05-09T06:16:17.638Z,33.92
2024-05-09T06:17:17.754Z,33.91
2024-05-09T06:18:18.029Z,33.89
2024-05-09T06:19:17.707Z,33.85
2024-05-09T06:20:23.933Z,33.84
2024-05-09T06:21:18.961Z,33.84
2024-05-09T06:22:17.719Z,33.86
2024-05-09T06:23:17.774Z,33.84
2024-05-09T06:24:17.743Z,33.86
2024-05-09T06:25:17.723Z,33.83
2024-05-09T06:26:17.790Z,33.80
2024-05-09T06:27:17.737Z,33.80
2024-05-09T06:28:17.810Z,33.79
2024-05-09T06:29:17.821Z,33.76
2024-05-09T06:30:25.831Z,33.79
2024-05-09T06:31:18.863Z,33.78
2024-05-09T06:32:17.939Z,33.74
2024-05-09T06:33:18.221Z,33.75
2024-05-09T06:34:18.075Z,33.75
2024-05-09T06:35:17.980Z,33.77
2024-05-09T06:36:17.928Z,33.77
2024-05-09T06:37:17.946Z,33.75
2024-05-09T06:38:17.969Z,33.76
2024-05-09T06:39:17.951Z,33.79
2024-05-09T06:40:25.368Z,33.76
2024-05-09T06:41:19.013Z,33.77
2024-05-09T06:42:17.963Z,33.79
2024-05-09T06:43:19.446Z,33.80
2024-05-09T06:44:17.974Z,33.75
2024-05-09T06:45:17.976Z,33.78
2024-05-09T06:46:17.934Z,33.78
2024-05-09T06:47:18.068Z,33.79
2024-05-09T06:48:18.046Z,33.80
2024-05-09T06:49:18.097Z,33.78
2024-05-09T06:50:23.853Z,33.77
2024-05-09T06:51:19.046Z,33.81
2024-05-09T06:52:17.954Z,33.75
2024-05-09T06:53:18.045Z,33.75
2024-05-09T06:54:17.942Z,33.75
2024-05-09T06:55:17.967Z,33.74
2024-05-09T06:56:17.972Z,33.73
2024-05-09T06:57:17.946Z,33.73
2024-05-09T06:58:18.042Z,33.72
2024-05-09T06:59:18.038Z,33.75
2024-05-09T07:00:26.841Z,33.74
2024-05-09T07:01:19.030Z,33.73
2024-05-09T07:02:18.057Z,33.70
2024-05-09T07:03:19.337Z,33.74
2024-05-09T07:04:18.172Z,33.69
2024-05-09T07:05:18.115Z,33.71
2024-05-09T07:06:18.005Z,33.67
2024-05-09T07:07:17.990Z,33.68
2024-05-09T07:08:18.144Z,33.71
2024-05-09T07:09:17.997Z,33.68
2024-05-09T07:10:25.479Z,33.67
2024-05-09T07:11:19.099Z,33.68
2024-05-09T07:12:18.232Z,33.67
2024-05-09T07:13:18.135Z,33.67
2024-05-09T07:14:18.116Z,33.67
2024-05-09T07:15:18.019Z,33.64
2024-05-09T07:16:18.045Z,33.63
2024-05-09T07:17:18.091Z,33.64
2024-05-09T07:18:19.176Z,33.65
2024-05-09T07:19:18.111Z,33.64
2024-05-09T07:20:23.694Z,33.62
2024-05-09T07:21:19.155Z,33.62
2024-05-09T07:22:18.005Z,33.62
2024-05-09T07:23:18.198Z,33.63
2024-05-09T07:24:17.994Z,33.60
2024-05-09T07:25:18.015Z,33.60
2024-05-09T07:26:18.254Z,33.57
2024-05-09T07:27:18.084Z,33.60
2024-05-09T07:28:18.138Z,33.56
2024-05-09T07:29:18.197Z,33.53
2024-05-09T07:30:23.792Z,33.54
2024-05-09T07:31:19.098Z,33.53
2024-05-09T07:32:18.199Z,33.55
2024-05-09T07:33:18.380Z,33.55
2024-05-09T07:34:18.151Z,33.51
2024-05-09T07:35:18.142Z,33.52
2024-05-09T07:36:18.078Z,33.51
2024-05-09T07:37:18.088Z,33.53
2024-05-09T07:38:18.207Z,33.50
2024-05-09T07:39:18.079Z,33.50
2024-05-09T07:40:28.403Z,33.49
2024-05-09T07:41:19.150Z,33.53
2024-05-09T07:42:18.090Z,33.51
2024-05-09T07:43:18.109Z,33.51
2024-05-09T07:44:18.165Z,33.51
2024-05-09T07:47:14.376Z,33.54
2024-05-09T07:48:29.086Z,33.52
2024-05-09T07:51:31.322Z,33.49
2024-05-09T07:53:38.167Z,33.50
2024-05-09T07:54:19.233Z,33.53
2024-05-09T07:55:18.368Z,33.49
2024-05-09T07:56:19.361Z,33.49
2024-05-09T07:57:18.263Z,33.50
2024-05-09T07:58:18.147Z,33.50
2024-05-09T07:59:18.140Z,33.51
2024-05-09T08:00:23.778Z,33.49
2024-05-09T08:01:19.480Z,33.50
2024-05-09T08:02:18.267Z,33.45
2024-05-09T08:03:18.358Z,33.48
2024-05-09T08:04:18.345Z,33.45
2024-05-09T08:05:18.265Z,33.46
2024-05-09T08:06:18.207Z,33.45
2024-05-09T08:07:18.310Z,33.46
2024-05-09T08:08:18.233Z,33.43
2024-05-09T08:09:21.223Z,33.45
2024-05-09T08:10:22.221Z,33.44
2024-05-09T08:11:19.308Z,33.40
2024-05-09T08:12:18.206Z,33.39
2024-05-09T08:13:18.380Z,33.40
2024-05-09T08:14:18.247Z,33.40
2024-05-09T08:15:18.230Z,33.39
2024-05-09T08:16:18.244Z,33.40
2024-05-09T08:17:18.267Z,33.38
2024-05-09T08:18:18.365Z,33.40
2024-05-09T08:19:18.310Z,33.40
2024-05-09T08:20:26.834Z,33.38
2024-05-09T08:21:19.311Z,33.39
2024-05-09T08:22:18.302Z,33.37
2024-05-09T08:23:18.284Z,33.37
2024-05-09T08:24:18.292Z,33.36
2024-05-09T08:25:18.397Z,33.34
2024-05-09T08:26:18.283Z,33.34
2024-05-09T08:27:18.243Z,33.34
2024-05-09T08:28:18.355Z,33.32
2024-05-09T08:29:18.314Z,33.32
2024-05-09T08:30:24.883Z,33.32
2024-05-09T08:31:19.444Z,33.27
2024-05-09T08:32:18.414Z,33.24
2024-05-09T08:33:18.590Z,33.23
2024-05-09T08:34:18.536Z,33.19
2024-05-09T08:35:18.372Z,33.21
2024-05-09T08:36:18.404Z,33.20
2024-05-09T08:37:22.508Z,33.22
2024-05-09T08:38:19.392Z,33.23
2024-05-09T08:39:18.427Z,33.26
2024-05-09T08:40:24.205Z,33.24
2024-05-09T08:41:19.430Z,33.25
2024-05-09T08:42:18.425Z,33.26
2024-05-09T08:43:18.497Z,33.26
2024-05-09T08:44:18.405Z,33.24
2024-05-09T08:45:18.453Z,33.25
2024-05-09T08:46:18.527Z,33.26
2024-05-09T08:47:18.467Z,33.23
2024-05-09T08:48:18.690Z,33.22
2024-05-09T08:49:18.516Z,33.20
2024-05-09T08:50:28.898Z,33.20
2024-05-09T08:51:19.435Z,33.19
2024-05-09T08:52:18.423Z,33.16
2024-05-09T08:53:18.432Z,33.16
2024-05-09T08:54:18.421Z,33.15
2024-05-09T08:55:18.454Z,33.19
2024-05-09T08:56:18.452Z,33.21
2024-05-09T08:57:18.477Z,33.19
2024-05-09T08:58:18.574Z,33.21
2024-05-09T08:59:18.465Z,33.18
2024-05-09T09:00:29.241Z,33.16
2024-05-09T09:01:19.716Z,33.14
2024-05-09T09:02:18.695Z,33.15
2024-05-09T09:03:18.808Z,33.10
2024-05-09T09:04:18.755Z,33.10
2024-05-09T09:05:18.807Z,33.06
2024-05-09T09:06:18.611Z,33.07
2024-05-09T09:07:18.654Z,33.08
2024-05-09T09:08:18.593Z,33.07
2024-05-09T09:09:18.637Z,33.08
2024-05-09T09:10:28.925Z,33.07
2024-05-09T09:11:19.675Z,33.07
2024-05-09T09:12:18.623Z,33.07
2024-05-09T09:13:18.641Z,33.05
2024-05-09T09:14:18.627Z,33.05
2024-05-09T09:15:18.600Z,33.03
2024-05-09T09:16:18.829Z,33.02
2024-05-09T09:17:18.668Z,33.02
2024-05-09T09:18:19.120Z,33.01
2024-05-09T09:19:18.733Z,33.03
2024-05-09T09:20:25.950Z,33.01
2024-05-09T09:21:19.633Z,33.02
2024-05-09T09:22:18.629Z,33.01
2024-05-09T09:23:18.620Z,33.03
2024-05-09T09:24:18.632Z,32.98
2024-05-09T09:25:18.633Z,32.99
2024-05-09T09:26:18.604Z,32.98
2024-05-09T09:27:18.622Z,33.00
2024-05-09T09:28:18.674Z,32.98
2024-05-09T09:29:18.623Z,32.98
2024-05-09T09:30:31.435Z,33.01
2024-05-09T09:31:19.712Z,33.00
2024-05-09T09:32:18.699Z,32.98
2024-05-09T09:33:18.725Z,32.97
2024-05-09T09:34:18.750Z,32.98
2024-05-09T09:35:18.664Z,32.96
2024-05-09T09:36:18.729Z,32.97
2024-05-09T09:37:18.741Z,32.97
2024-05-09T09:38:18.696Z,33.00
2024-05-09T09:39:18.644Z,32.96
2024-05-09T09:40:18.738Z,32.95
2024-05-09T09:41:18.634Z,32.99
2024-05-09T09:42:18.655Z,32.99
2024-05-09T09:43:18.699Z,32.97
2024-05-09T09:44:18.785Z,32.95
2024-05-09T09:45:18.633Z,32.95
2024-05-09T09:46:18.698Z,32.95
2024-05-09T09:47:18.683Z,32.95
2024-05-09T09:48:18.820Z,32.95
2024-05-09T09:49:18.798Z,32.93
2024-05-09T09:50:24.083Z,32.94
2024-05-09T09:51:19.717Z,32.96
2024-05-09T09:52:18.757Z,32.95
2024-05-09T09:53:18.695Z,32.97
2024-05-09T09:54:18.708Z,32.91
2024-05-09T09:55:18.716Z,32.93
2024-05-09T09:56:18.674Z,32.95
2024-05-09T09:57:18.674Z,32.93
2024-05-09T09:58:18.816Z,32.96
2024-05-09T09:59:18.674Z,32.94
2024-05-09T10:00:24.527Z,32.95
2024-05-09T10:01:20.003Z,32.97
2024-05-09T10:02:19.013Z,32.95
2024-05-09T10:03:19.219Z,32.94
2024-05-09T10:04:19.145Z,32.93
2024-05-09T10:05:18.969Z,32.94
2024-05-09T10:06:18.836Z,32.93
2024-05-09T10:07:18.882Z,32.95
2024-05-09T10:08:18.802Z,32.94
2024-05-09T10:09:18.841Z,32.95
2024-05-09T10:10:26.899Z,32.94
2024-05-09T10:11:20.000Z,32.95
2024-05-09T10:12:18.852Z,32.94
2024-05-09T10:13:19.008Z,32.92
2024-05-09T10:14:18.809Z,32.95
2024-05-09T10:15:18.824Z,32.92
2024-05-09T10:16:18.955Z,32.93
2024-05-09T10:17:18.957Z,32.93
2024-05-09T10:18:18.947Z,32.94
2024-05-09T10:19:19.045Z,32.92
2024-05-09T10:20:24.650Z,32.93
2024-05-09T10:21:19.855Z,32.92
2024-05-09T10:22:18.911Z,32.93
2024-05-09T10:23:18.842Z,32.89
2024-05-09T10:24:18.824Z,32.91
2024-05-09T10:25:18.876Z,32.90
2024-05-09T10:26:18.909Z,32.90
2024-05-09T10:27:18.907Z,32.88
2024-05-09T10:28:18.926Z,32.89
2024-05-09T10:29:18.868Z,32.88
2024-05-09T10:30:26.080Z,32.90
2024-05-09T10:31:19.917Z,32.89
2024-05-09T10:32:19.046Z,32.89
2024-05-09T10:33:19.007Z,32.87
2024-05-09T10:34:19.092Z,32.88
2024-05-09T10:35:18.887Z,32.89
2024-05-09T10:36:18.847Z,32.88
2024-05-09T10:37:18.899Z,32.86
2024-05-09T10:38:18.858Z,32.88
2024-05-09T10:39:18.862Z,32.88
2024-05-09T10:40:26.070Z,32.85
2024-05-09T10:41:20.018Z,32.88
2024-05-09T10:42:18.966Z,32.87
2024-05-09T10:43:19.033Z,32.86
2024-05-09T10:44:18.991Z,32.85
2024-05-09T10:45:18.973Z,32.86
2024-05-09T10:46:19.384Z,32.84
2024-05-09T10:47:18.997Z,32.84
2024-05-09T10:48:19.071Z,32.83
2024-05-09T10:49:19.062Z,32.84
2024-05-09T10:50:25.674Z,32.81
2024-05-09T10:51:20.038Z,32.83
2024-05-09T10:52:19.057Z,32.83
2024-05-09T10:53:18.979Z,32.81
2024-05-09T10:54:18.976Z,32.81
2024-05-09T10:55:19.164Z,32.79
2024-05-09T10:56:19.020Z,32.80
2024-05-09T10:57:18.991Z,32.79
2024-05-09T10:58:19.110Z,32.80
2024-05-09T10:59:18.993Z,32.79
2024-05-09T11:00:27.552Z,32.78
2024-05-09T11:01:20.066Z,32.79
2024-05-09T11:02:19.076Z,32.79
2024-05-09T11:03:19.102Z,32.80
2024-05-09T11:04:19.191Z,32.77
2024-05-09T11:05:19.440Z,32.78
2024-05-09T11:06:19.035Z,32.77
2024-05-09T11:07:19.262Z,32.78
2024-05-09T11:08:19.035Z,32.78
2024-05-09T11:09:19.050Z,32.76
2024-05-09T11:10:27.284Z,32.76
2024-05-09T11:11:20.029Z,32.75
2024-05-09T11:12:21.299Z,32.73
2024-05-09T11:13:19.077Z,32.73
2024-05-09T11:14:19.048Z,32.75
2024-05-09T11:15:19.190Z,32.73
2024-05-09T11:16:19.280Z,32.70
2024-05-09T11:17:19.241Z,32.71
2024-05-09T11:18:20.996Z,32.71
2024-05-09T11:19:19.294Z,32.72
2024-05-09T11:20:26.780Z,32.71
2024-05-09T11:21:20.118Z,32.72
2024-05-09T11:22:19.196Z,32.69
2024-05-09T11:23:19.074Z,32.68
2024-05-09T11:24:19.084Z,32.69
2024-05-09T11:25:19.222Z,32.67
2024-05-09T11:26:19.119Z,32.66
2024-05-09T11:27:19.131Z,32.66
2024-05-09T11:28:19.203Z,32.66
2024-05-09T11:29:19.703Z,32.67
2024-05-09T11:31:19.416Z,32.65
2024-05-09T11:32:19.172Z,32.65
2024-05-09T11:33:19.234Z,32.64
2024-05-09T11:34:19.307Z,32.65
2024-05-09T11:35:19.124Z,32.66
2024-05-09T11:36:19.162Z,32.64
2024-05-09T11:37:19.314Z,32.63
2024-05-09T11:38:19.102Z,32.66
2024-05-09T11:39:19.108Z,32.65
2024-05-09T11:40:25.302Z,32.65
2024-05-09T11:41:20.118Z,32.63
2024-05-09T11:42:19.126Z,32.62
2024-05-09T11:43:19.320Z,32.63
2024-05-09T11:44:19.145Z,32.62
2024-05-09T11:45:19.185Z,32.65
2024-05-09T11:46:19.265Z,32.61
2024-05-09T11:47:19.199Z,32.62
2024-05-09T11:48:19.271Z,32.63
2024-05-09T11:49:19.272Z,32.62
2024-05-09T11:50:26.642Z,32.62
2024-05-09T11:51:20.206Z,32.65
2024-05-09T11:52:19.218Z,32.62
2024-05-09T11:53:19.199Z,32.63
2024-05-09T11:54:19.195Z,32.61
2024-05-09T11:55:19.331Z,32.60
2024-05-09T11:56:19.193Z,32.61
2024-05-09T11:57:19.201Z,32.63
2024-05-09T11:58:19.545Z,32.62
2024-05-09T11:59:19.189Z,32.65
2024-05-09T12:00:29.134Z,32.63
2024-05-09T12:01:21.353Z,32.68
2024-05-09T12:02:19.386Z,32.64
2024-05-09T12:03:19.377Z,32.64
2024-05-09T12:04:19.457Z,32.63
2024-05-09T12:05:19.568Z,32.61
2024-05-09T12:06:19.216Z,32.62
2024-05-09T12:07:19.381Z,32.61
2024-05-09T12:08:19.215Z,32.60
2024-05-09T12:09:19.251Z,32.60
2024-05-09T12:10:22.491Z,32.61
2024-05-09T12:11:20.263Z,32.59
2024-05-09T12:12:19.268Z,32.60
2024-05-09T12:13:19.420Z,32.58
2024-05-09T12:14:19.260Z,32.56
2024-05-09T12:15:19.262Z,32.58
2024-05-09T12:16:19.370Z,32.60
2024-05-09T12:17:19.296Z,32.63
2024-05-09T12:18:19.287Z,32.61
2024-05-09T12:19:19.326Z,32.59
2024-05-09T12:20:28.298Z,32.58
2024-05-09T12:21:20.253Z,32.59
2024-05-09T12:22:19.285Z,32.60
2024-05-09T12:23:19.247Z,32.56
2024-05-09T12:24:19.286Z,32.56
2024-05-09T12:25:19.385Z,32.55
2024-05-09T12:26:19.301Z,32.55
2024-05-09T12:27:19.286Z,32.55
2024-05-09T12:28:19.461Z,32.52
2024-05-09T12:29:19.279Z,32.51
2024-05-09T12:30:32.115Z,32.52
2024-05-09T12:31:20.285Z,32.53
2024-05-09T12:32:19.317Z,32.54
2024-05-09T12:33:19.381Z,32.51
2024-05-09T12:34:19.290Z,32.50
2024-05-09T12:35:19.308Z,32.50
2024-05-09T12:36:19.292Z,32.50
2024-05-09T12:37:19.320Z,32.49
2024-05-09T12:38:19.291Z,32.47
2024-05-09T12:39:19.307Z,32.48
2024-05-09T12:40:30.618Z,32.47
2024-05-09T12:41:20.275Z,32.50
2024-05-09T12:42:26.496Z,32.46
2024-05-09T12:43:20.448Z,32.47
2024-05-09T12:44:19.329Z,32.46
2024-05-09T12:45:19.298Z,32.45
2024-05-09T12:46:19.399Z,32.45
2024-05-09T12:47:19.394Z,32.45
2024-05-09T12:48:19.490Z,32.43
2024-05-09T12:49:20.114Z,32.44
2024-05-09T12:50:28.897Z,32.47
2024-05-09T12:51:20.320Z,32.46
2024-05-09T12:52:19.332Z,32.46
2024-05-09T12:53:19.319Z,32.45
2024-05-09T12:54:19.323Z,32.47
2024-05-09T12:55:19.355Z,32.45
2024-05-09T12:56:19.352Z,32.45
2024-05-09T12:57:19.378Z,32.47
2024-05-09T12:58:19.549Z,32.47